Time;durP1;ratioP1;P1;durP2;ratioP2;P2;SDS_P1;SDS_P2;PMS_P1;PMS_P2;Temp;Humidity;BMP_temperature;BMP_pressure;BME280_temperature;BME280_humidity;BME280_pressure;Samples;Min_cycle;Max_cycle;Signal;HPM_P1;HPM_P2
2022/10/07 00:02:05;;;;;;;5.83;2.83;;;;;;;;;;5008632;28;20196;-85
2022/10/07 00:05:10;;;;;;;2.87;2.43;;;;;;;;;;5029204;28;20181;-84
2022/10/07 00:08:14;;;;;;;5.73;2.30;;;;;;;;;;5007687;28;20185;-83
2022/10/07 00:11:24;;;;;;;6.17;2.70;;;;;;;;;;5007694;28;20181;-84
2022/10/07 00:14:28;;;;;;;5.60;3.50;;;;;;;;;;5030531;28;20217;-84
2022/10/07 00:17:33;;;;;;;3.40;2.73;;;;;;;;;;5041290;28;20177;-84
2022/10/07 00:20:38;;;;;;;3.30;2.60;;;;;;;;;;5030310;28;20209;-84
2022/10/07 00:23:43;;;;;;;5.00;2.40;;;;;;;;;;5030138;28;20208;-84
2022/10/07 00:26:47;;;;;;;5.30;2.50;;;;;;;;;;5007276;28;20177;-84
2022/10/07 00:29:51;;;;;;;3.70;2.60;;;;;;;;;;5019102;28;20181;-84
2022/10/07 00:32:56;;;;;;;3.80;2.43;;;;;;;;;;5007475;28;20220;-84
2022/10/07 00:36:00;;;;;;;6.93;2.50;;;;;;;;;;5018098;28;20185;-84
2022/10/07 00:39:11;;;;;;;3.00;2.70;;;;;;;;;;5029436;28;20208;-84
2022/10/07 00:42:16;;;;;;;4.07;2.40;;;;;;;;;;5029053;28;20188;-84
2022/10/07 00:45:21;;;;;;;4.70;2.63;;;;;;;;;;5016871;28;20185;-83
2022/10/07 00:48:30;;;;;;;5.67;2.33;;;;;;;;;;5005533;28;20184;-84
2022/10/07 00:51:35;;;;;;;4.63;2.67;;;;;;;;;;5015625;28;20177;-84
2022/10/07 00:54:39;;;;;;;5.00;2.30;;;;;;;;;;5016116;28;20200;-84
2022/10/07 00:57:45;;;;;;;4.53;2.50;;;;;;;;;;5016140;28;20192;-84
2022/10/07 01:00:49;;;;;;;4.43;2.53;;;;;;;;;;5016558;28;20217;-84
2022/10/07 01:03:54;;;;;;;6.83;2.60;;;;;;;;;;5017516;28;20216;-84
2022/10/07 01:06:58;;;;;;;8.63;2.20;;;;;;;;;;5004550;28;20177;-84
2022/10/07 01:10:03;;;;;;;6.47;2.20;;;;;;;;;;5017620;28;20192;-84
2022/10/07 01:13:16;;;;;;;2.80;2.40;;;;;;;;;;5005844;28;20228;-84
2022/10/07 01:16:56;;;;;;;5.83;2.73;;;;;;;;;;5018171;28;20196;-84
2022/10/07 01:20:07;;;;;;;3.57;2.40;;;;;;;;;;5006874;28;20553;-84
2022/10/07 01:23:51;;;;;;;4.23;2.20;;;;;;;;;;5028294;28;20220;-84
2022/10/07 01:27:06;;;;;;;6.93;2.63;;;;;;;;;;5007099;28;20181;-84
2022/10/07 01:30:11;;;;;;;6.53;2.60;;;;;;;;;;5006402;28;20178;-84
2022/10/07 01:33:19;;;;;;;3.40;2.20;;;;;;;;;;5017700;28;20228;-84
2022/10/07 01:36:25;;;;;;;5.80;2.43;;;;;;;;;;5017463;28;20181;-84
2022/10/07 01:39:38;;;;;;;7.43;2.43;;;;;;;;;;5027276;28;20209;-84
2022/10/07 01:42:44;;;;;;;3.80;2.13;;;;;;;;;;5006477;28;20220;-84
2022/10/07 01:45:53;;;;;;;4.17;2.70;;;;;;;;;;5006321;28;20185;-84
2022/10/07 01:48:58;;;;;;;4.17;2.40;;;;;;;;;;5005997;28;20185;-84
2022/10/07 01:52:27;;;;;;;4.63;2.23;;;;;;;;;;5015827;28;20200;-84
2022/10/07 01:55:51;;;;;;;6.77;2.37;;;;;;;;;;5004771;28;20185;-84
2022/10/07 01:59:23;;;;;;;2.30;2.10;;;;;;;;;;5005606;28;20185;-85
2022/10/07 02:02:56;;;;;;;4.77;2.13;;;;;;;;;;5005863;28;20177;-84
2022/10/07 02:06:30;;;;;;;3.60;2.23;;;;;;;;;;5021206;28;20190;-84
2022/10/07 02:09:48;;;;;;;3.50;2.07;;;;;;;;;;5007095;28;20365;-83
2022/10/07 02:13:15;;;;;;;4.53;1.90;;;;;;;;;;5022018;28;20220;-84
2022/10/07 02:16:45;;;;;;;3.37;2.43;;;;;;;;;;5006064;28;20547;-85
2022/10/07 02:20:08;;;;;;;6.17;2.87;;;;;;;;;;5017062;28;20667;-85
2022/10/07 02:23:15;;;;;;;5.03;2.60;;;;;;;;;;5005714;28;20217;-85
2022/10/07 02:26:21;;;;;;;6.40;2.33;;;;;;;;;;5004922;28;20204;-86
2022/10/07 02:29:31;;;;;;;3.10;2.03;;;;;;;;;;5004953;28;20621;-85
2022/10/07 02:32:38;;;;;;;3.90;1.70;;;;;;;;;;5016467;28;20225;-85
2022/10/07 02:35:58;;;;;;;7.70;1.70;;;;;;;;;;5004830;28;20628;-84
2022/10/07 02:39:04;;;;;;;3.47;1.50;;;;;;;;;;5007982;28;20181;-83
2022/10/07 02:42:24;;;;;;;6.77;1.70;;;;;;;;;;5029634;28;20185;-83
2022/10/07 02:45:44;;;;;;;5.43;1.60;;;;;;;;;;5006130;28;20177;-82
2022/10/07 02:48:59;;;;;;;1.93;1.27;;;;;;;;;;5016308;28;20513;-82
2022/10/07 02:52:14;;;;;;;1.63;1.53;;;;;;;;;;5014236;28;20197;-81
2022/10/07 02:55:23;;;;;;;2.63;1.63;;;;;;;;;;5015589;28;20181;-81
2022/10/07 02:58:28;;;;;;;2.37;1.57;;;;;;;;;;5003979;28;20193;-83
2022/10/07 03:01:37;;;;;;;5.70;1.87;;;;;;;;;;5004658;28;20224;-82
2022/10/07 03:04:42;;;;;;;4.57;2.00;;;;;;;;;;5006613;28;20181;-83
2022/10/07 03:07:50;;;;;;;6.73;1.97;;;;;;;;;;5005190;28;20601;-83
2022/10/07 03:10:54;;;;;;;1.83;1.60;;;;;;;;;;5005581;28;20181;-83
2022/10/07 03:13:58;;;;;;;7.23;1.93;;;;;;;;;;5003837;28;20224;-82
2022/10/07 03:17:03;;;;;;;6.50;1.80;;;;;;;;;;5004026;28;20181;-83
2022/10/07 03:20:09;;;;;;;3.83;1.90;;;;;;;;;;5003742;28;20660;-82
2022/10/07 03:23:13;;;;;;;6.30;1.93;;;;;;;;;;5003344;28;20561;-82
2022/10/07 03:26:18;;;;;;;4.43;1.90;;;;;;;;;;5013840;28;20184;-82
2022/10/07 03:29:25;;;;;;;4.40;1.90;;;;;;;;;;5014450;28;20176;-82
2022/10/07 03:32:29;;;;;;;5.13;1.97;;;;;;;;;;5014608;28;20180;-82
2022/10/07 03:35:34;;;;;;;5.50;2.10;;;;;;;;;;5003249;28;20181;-82
2022/10/07 03:38:38;;;;;;;4.07;2.37;;;;;;;;;;5026085;28;20189;-81
2022/10/07 03:41:43;;;;;;;2.50;2.30;;;;;;;;;;5025267;28;20208;-82
2022/10/07 03:44:48;;;;;;;3.57;2.47;;;;;;;;;;5017545;28;20176;-81
2022/10/07 03:47:54;;;;;;;2.73;2.50;;;;;;;;;;5014716;28;20636;-81
2022/10/07 03:50:58;;;;;;;5.40;2.30;;;;;;;;;;5003601;28;20612;-81
2022/10/07 03:54:05;;;;;;;6.63;2.57;;;;;;;;;;5003320;28;20212;-79
2022/10/07 04:00:35;;;;;;;4.90;2.47;;;;;;;;;;5024685;28;20553;-80
2022/10/07 04:03:39;;;;;;;4.23;1.83;;;;;;;;;;5002060;28;20632;-79
2022/10/07 04:06:45;;;;;;;3.60;2.30;;;;;;;;;;5002573;28;20193;-80
2022/10/07 04:09:51;;;;;;;3.57;2.10;;;;;;;;;;5024403;28;20200;-79
2022/10/07 04:12:56;;;;;;;2.67;1.90;;;;;;;;;;5013065;28;20228;-80
2022/10/07 04:16:08;;;;;;;3.63;2.40;;;;;;;;;;5024844;28;20177;-80
2022/10/07 04:19:13;;;;;;;4.20;2.30;;;;;;;;;;5013096;28;20184;-79
2022/10/07 04:22:17;;;;;;;2.83;2.37;;;;;;;;;;5002406;28;20513;-81
2022/10/07 04:25:33;;;;;;;5.37;2.50;;;;;;;;;;5025187;28;20181;-82
2022/10/07 04:28:41;;;;;;;4.30;2.50;;;;;;;;;;5013106;28;20193;-80
2022/10/07 04:31:48;;;;;;;7.67;2.70;;;;;;;;;;5012520;28;20652;-81
2022/10/07 04:34:53;;;;;;;2.83;2.17;;;;;;;;;;5024582;28;20177;-82
2022/10/07 04:37:57;;;;;;;4.13;2.17;;;;;;;;;;5013596;28;20180;-81
2022/10/07 04:41:06;;;;;;;4.83;3.40;;;;;;;;;;5004372;28;20200;-80
2022/10/07 04:44:12;;;;;;;5.53;3.67;;;;;;;;;;5015315;28;20217;-81
2022/10/07 04:47:24;;;;;;;6.50;2.90;;;;;;;;;;5024192;28;20224;-82
2022/10/07 04:50:31;;;;;;;5.27;2.87;;;;;;;;;;5001467;28;20184;-81
2022/10/07 04:53:37;;;;;;;7.70;2.93;;;;;;;;;;5022381;28;20216;-85
2022/10/07 04:56:41;;;;;;;4.70;2.73;;;;;;;;;;4999781;28;20196;-86
2022/10/07 04:59:48;;;;;;;4.07;2.70;;;;;;;;;;5002466;28;20660;-85
2022/10/07 05:02:57;;;;;;;3.30;3.00;;;;;;;;;;5002926;28;20216;-84
2022/10/07 05:06:04;;;;;;;4.90;3.20;;;;;;;;;;5002187;28;20177;-84
2022/10/07 05:09:09;;;;;;;3.63;2.90;;;;;;;;;;5014110;28;20177;-84
2022/10/07 05:12:18;;;;;;;6.63;3.20;;;;;;;;;;5002554;28;20667;-84
2022/10/07 05:15:23;;;;;;;4.43;3.20;;;;;;;;;;5015222;28;20204;-84
2022/10/07 05:18:28;;;;;;;6.97;3.30;;;;;;;;;;5024620;28;20196;-84
2022/10/07 05:21:36;;;;;;;5.97;3.20;;;;;;;;;;5002824;28;20205;-84
2022/10/07 05:24:41;;;;;;;5.07;3.23;;;;;;;;;;5024638;28;20615;-85
2022/10/07 05:27:50;;;;;;;6.37;3.30;;;;;;;;;;5012749;28;20172;-85
2022/10/07 05:31:09;;;;;;;8.73;3.17;;;;;;;;;;5011489;28;20177;-86
2022/10/07 05:34:14;;;;;;;6.43;3.60;;;;;;;;;;5001984;28;20216;-85
2022/10/07 05:37:19;;;;;;;6.30;3.30;;;;;;;;;;5001577;28;20177;-84
2022/10/07 05:40:24;;;;;;;6.27;2.97;;;;;;;;;;5026613;28;20667;-86
2022/10/07 05:43:30;;;;;;;5.20;3.80;;;;;;;;;;5005568;28;20212;-84
2022/10/07 05:46:36;;;;;;;5.03;3.70;;;;;;;;;;5027772;28;20181;-84
2022/10/07 05:49:40;;;;;;;7.20;3.80;;;;;;;;;;5016909;28;20616;-85
2022/10/07 05:52:45;;;;;;;6.57;3.47;;;;;;;;;;5022120;28;20561;-84
2022/10/07 05:55:50;;;;;;;8.40;3.83;;;;;;;;;;5016573;28;20181;-84
2022/10/07 05:58:56;;;;;;;8.33;3.80;;;;;;;;;;5004589;28;20180;-84
2022/10/07 06:02:01;;;;;;;4.67;3.93;;;;;;;;;;5004558;28;20205;-84
2022/10/07 06:05:06;;;;;;;6.13;4.30;;;;;;;;;;5004634;28;20525;-84
2022/10/07 06:08:11;;;;;;;6.37;4.67;;;;;;;;;;5017124;28;20180;-84
2022/10/07 06:14:40;;;;;;;5.67;4.23;;;;;;;;;;5022990;28;20181;-84
2022/10/07 06:17:45;;;;;;;7.57;3.77;;;;;;;;;;5007726;28;20177;-84
2022/10/07 06:20:55;;;;;;;6.73;4.20;;;;;;;;;;5007604;28;20205;-84
2022/10/07 06:23:59;;;;;;;8.93;4.23;;;;;;;;;;5018039;28;20220;-84
2022/10/07 06:27:09;;;;;;;6.20;3.53;;;;;;;;;;5007607;28;20185;-84
2022/10/07 06:30:13;;;;;;;4.43;4.03;;;;;;;;;;5017813;28;20181;-84
2022/10/07 06:33:18;;;;;;;7.23;3.63;;;;;;;;;;5006975;28;20208;-82
2022/10/07 06:36:23;;;;;;;9.37;3.27;;;;;;;;;;5018236;28;20197;-83
2022/10/07 06:39:30;;;;;;;5.93;3.50;;;;;;;;;;5016029;28;20193;-84
2022/10/07 06:42:34;;;;;;;9.07;3.90;;;;;;;;;;5016464;28;20707;-84
2022/10/07 06:46:00;;;;;;;9.00;3.73;;;;;;;;;;5030814;28;20505;-84
2022/10/07 06:49:04;;;;;;;6.23;4.13;;;;;;;;;;5006360;28;20628;-85
2022/10/07 06:52:08;;;;;;;4.87;3.50;;;;;;;;;;5005638;28;20181;-84
2022/10/07 06:55:14;;;;;;;5.30;3.43;;;;;;;;;;5016432;28;20525;-84
2022/10/07 06:58:19;;;;;;;6.33;3.93;;;;;;;;;;5027405;28;20181;-84
2022/10/07 07:01:24;;;;;;;8.30;3.47;;;;;;;;;;5004458;28;20205;-85
2022/10/07 07:04:28;;;;;;;6.33;4.13;;;;;;;;;;5005287;28;20691;-84
2022/10/07 07:07:32;;;;;;;6.83;4.00;;;;;;;;;;5027051;28;20184;-83
2022/10/07 07:10:39;;;;;;;5.23;3.50;;;;;;;;;;5020787;28;20181;-85
2022/10/07 07:13:43;;;;;;;7.43;3.97;;;;;;;;;;5020505;28;20221;-85
2022/10/07 07:16:48;;;;;;;5.37;3.30;;;;;;;;;;5020909;28;20181;-85
2022/10/07 07:19:55;;;;;;;5.83;3.50;;;;;;;;;;5031297;28;20185;-84
2022/10/07 07:23:01;;;;;;;3.60;3.30;;;;;;;;;;5020392;28;20212;-84
2022/10/07 07:26:05;;;;;;;6.70;3.50;;;;;;;;;;5019554;28;20177;-85
2022/10/07 07:29:11;;;;;;;8.20;2.90;;;;;;;;;;5042250;28;20181;-84
2022/10/07 07:32:20;;;;;;;7.53;3.50;;;;;;;;;;5021299;28;20177;-84
2022/10/07 07:35:30;;;;;;;4.27;3.10;;;;;;;;;;5030571;28;20181;-85
2022/10/07 07:38:35;;;;;;;5.33;2.90;;;;;;;;;;5019819;28;20525;-84
2022/10/07 07:41:41;;;;;;;9.60;3.33;;;;;;;;;;5030209;28;20212;-84
2022/10/07 07:44:46;;;;;;;6.10;3.17;;;;;;;;;;5030470;28;20177;-84
2022/10/07 07:47:53;;;;;;;9.93;3.47;;;;;;;;;;5018762;28;20169;-84
2022/10/07 07:50:59;;;;;;;4.20;3.00;;;;;;;;;;5041063;28;20184;-84
2022/10/07 07:54:03;;;;;;;7.13;3.20;;;;;;;;;;5017928;28;20224;-84
2022/10/07 07:57:09;;;;;;;4.47;3.40;;;;;;;;;;5053070;28;20196;-84
2022/10/07 08:00:15;;;;;;;5.43;3.33;;;;;;;;;;5041119;28;20204;-84
2022/10/07 08:03:24;;;;;;;6.50;3.93;;;;;;;;;;5033197;28;20216;-84
2022/10/07 08:06:30;;;;;;;6.83;3.80;;;;;;;;;;5036191;28;20180;-83
2022/10/07 08:09:35;;;;;;;9.80;3.60;;;;;;;;;;5035888;28;20196;-84
2022/10/07 08:12:40;;;;;;;6.40;3.70;;;;;;;;;;5030099;28;20232;-84
2022/10/07 08:15:44;;;;;;;4.70;3.50;;;;;;;;;;5027791;28;20185;-84
2022/10/07 08:18:50;;;;;;;8.47;3.67;;;;;;;;;;5028050;28;20173;-84
2022/10/07 08:21:56;;;;;;;9.47;4.70;;;;;;;;;;5016807;28;20212;-84
2022/10/07 08:25:04;;;;;;;6.50;4.37;;;;;;;;;;5027823;28;20185;-84
2022/10/07 08:28:09;;;;;;;6.77;4.03;;;;;;;;;;5029063;28;20177;-84
2022/10/07 08:31:16;;;;;;;16.50;4.83;;;;;;;;;;5038919;28;20196;-84
2022/10/07 08:34:20;;;;;;;11.37;4.97;;;;;;;;;;5015304;28;20212;-84
2022/10/07 08:37:24;;;;;;;8.07;4.93;;;;;;;;;;5028219;28;20173;-84
2022/10/07 08:40:28;;;;;;;12.17;4.77;;;;;;;;;;5038108;28;20184;-84
2022/10/07 08:43:35;;;;;;;10.13;5.40;;;;;;;;;;5050352;28;20208;-84
2022/10/07 08:47:00;;;;;;;7.53;5.47;;;;;;;;;;5027848;28;20185;-83
2022/10/07 08:50:15;;;;;;;8.00;5.63;;;;;;;;;;5027525;28;20180;-83
2022/10/07 08:53:35;;;;;;;15.90;6.13;;;;;;;;;;5016248;28;20212;-83
2022/10/07 08:56:41;;;;;;;10.03;6.60;;;;;;;;;;5014599;28;20181;-83
2022/10/07 08:59:52;;;;;;;9.30;6.43;;;;;;;;;;5013575;28;20188;-83
2022/10/07 09:02:59;;;;;;;23.83;7.17;;;;;;;;;;5024466;28;20232;-83
2022/10/07 09:06:12;;;;;;;9.10;6.47;;;;;;;;;;5013658;28;20196;-83
2022/10/07 09:09:27;;;;;;;10.03;6.27;;;;;;;;;;5023942;28;20181;-83
2022/10/07 09:12:49;;;;;;;8.40;6.03;;;;;;;;;;5013678;28;20192;-83
2022/10/07 09:16:17;;;;;;;10.43;5.63;;;;;;;;;;5023040;28;20177;-84
2022/10/07 09:19:37;;;;;;;10.50;5.27;;;;;;;;;;5034886;28;20180;-83
2022/10/07 09:22:47;;;;;;;8.73;5.80;;;;;;;;;;5034179;28;20228;-83
2022/10/07 09:25:51;;;;;;;10.37;4.93;;;;;;;;;;5011658;28;20177;-84
2022/10/07 09:28:57;;;;;;;6.90;5.00;;;;;;;;;;5034728;28;20169;-83
2022/10/07 09:32:02;;;;;;;6.50;4.83;;;;;;;;;;5022943;28;20175;-83
2022/10/07 09:35:12;;;;;;;7.43;5.23;;;;;;;;;;5013390;28;20178;-83
2022/10/07 09:38:28;;;;;;;10.10;6.30;;;;;;;;;;5023121;28;20188;-84
2022/10/07 09:41:37;;;;;;;7.30;5.90;;;;;;;;;;5022919;28;20183;-84
2022/10/07 09:44:50;;;;;;;9.37;5.77;;;;;;;;;;5010989;28;20188;-84
2022/10/07 09:47:58;;;;;;;8.50;5.00;;;;;;;;;;5011799;28;20198;-84
2022/10/07 09:51:16;;;;;;;6.60;4.80;;;;;;;;;;5010946;28;20184;-84
2022/10/07 09:54:25;;;;;;;11.43;5.83;;;;;;;;;;5035485;28;20218;-83
2022/10/07 09:57:33;;;;;;;9.77;6.40;;;;;;;;;;5012123;28;20185;-83
2022/10/07 10:00:42;;;;;;;9.87;6.37;;;;;;;;;;5022537;28;20177;-84
2022/10/07 10:03:46;;;;;;;9.13;5.27;;;;;;;;;;5022834;28;20207;-83
2022/10/07 10:06:51;;;;;;;10.70;6.53;;;;;;;;;;5023015;28;20178;-83
2022/10/07 10:10:02;;;;;;;7.70;6.57;;;;;;;;;;5022786;28;20172;-84
2022/10/07 10:13:32;;;;;;;9.25;7.07;;;;;;;;;;5011142;28;20220;-83
2022/10/07 10:16:39;;;;;;;10.90;7.27;;;;;;;;;;5022084;28;20178;-83
2022/10/07 10:19:43;;;;;;;9.55;6.53;;;;;;;;;;5035176;28;20184;-84
2022/10/07 10:22:48;;;;;;;15.75;7.93;;;;;;;;;;5021841;28;20226;-83
2022/10/07 10:26:26;;;;;;;20.88;8.88;;;;;;;;;;5014107;28;20185;-83
2022/10/07 10:29:57;;;;;;;33.63;10.52;;;;;;;;;;5027407;28;20189;-84
2022/10/07 10:33:21;;;;;;;11.68;8.57;;;;;;;;;;5027193;28;20215;-83
2022/10/07 10:36:29;;;;;;;14.13;9.75;;;;;;;;;;5014604;28;20175;-83
2022/10/07 10:39:49;;;;;;;16.33;11.38;;;;;;;;;;5026491;28;20186;-83
2022/10/07 10:43:15;;;;;;;16.20;11.65;;;;;;;;;;5027361;28;20236;-83
2022/10/07 10:46:29;;;;;;;15.57;12.30;;;;;;;;;;5026671;28;20564;-83
2022/10/07 10:49:37;;;;;;;15.80;11.37;;;;;;;;;;5014992;28;20207;-83
2022/10/07 10:52:44;;;;;;;16.60;11.77;;;;;;;;;;5015375;28;20605;-83
2022/10/07 10:56:34;;;;;;;16.33;13.37;;;;;;;;;;5038687;28;20189;-84
2022/10/07 11:00:07;;;;;;;19.10;14.50;;;;;;;;;;5014329;28;20193;-83
2022/10/07 11:03:17;;;;;;;17.67;13.50;;;;;;;;;;5037079;28;20240;-83
2022/10/07 11:06:25;;;;;;;16.57;14.17;;;;;;;;;;5026356;28;20203;-83
2022/10/07 11:09:54;;;;;;;17.63;13.67;;;;;;;;;;5015265;28;20190;-83
2022/10/07 11:13:21;;;;;;;21.27;14.67;;;;;;;;;;5024984;28;20223;-83
2022/10/07 11:16:31;;;;;;;18.27;14.33;;;;;;;;;;5024262;28;20195;-83
2022/10/07 11:19:47;;;;;;;19.70;14.90;;;;;;;;;;5014917;28;20199;-83
2022/10/07 11:22:57;;;;;;;21.70;14.90;;;;;;;;;;5026089;28;20239;-83
2022/10/07 11:26:06;;;;;;;19.70;15.47;;;;;;;;;;5014358;28;20646;-83
2022/10/07 11:29:24;;;;;;;16.83;14.17;;;;;;;;;;5048334;28;20535;-83
2022/10/07 11:32:54;;;;;;;20.97;15.23;;;;;;;;;;5025164;28;20192;-83
2022/10/07 11:36:07;;;;;;;22.20;15.97;;;;;;;;;;5013924;28;20187;-83
2022/10/07 11:39:12;;;;;;;20.23;14.57;;;;;;;;;;5036434;28;20195;-83
2022/10/07 11:42:21;;;;;;;32.77;14.10;;;;;;;;;;5035567;28;20685;-83
2022/10/07 11:45:32;;;;;;;19.40;13.90;;;;;;;;;;5025528;28;20201;-83
2022/10/07 11:48:48;;;;;;;20.57;14.10;;;;;;;;;;5013722;28;20187;-83
2022/10/07 11:52:06;;;;;;;17.20;13.00;;;;;;;;;;5025076;28;20642;-83
2022/10/07 11:55:22;;;;;;;15.30;10.80;;;;;;;;;;5036648;28;20184;-83
2022/10/07 11:58:31;;;;;;;15.07;10.93;;;;;;;;;;5015119;28;20187;-83
2022/10/07 12:01:35;;;;;;;17.57;10.73;;;;;;;;;;5013835;28;20209;-83
2022/10/07 12:04:39;;;;;;;22.70;12.13;;;;;;;;;;5024752;28;20227;-83
2022/10/07 12:07:59;;;;;;;14.03;9.93;;;;;;;;;;5024794;28;20207;-83
2022/10/07 12:11:10;;;;;;;13.07;9.43;;;;;;;;;;5013324;28;20185;-83
2022/10/07 12:14:34;;;;;;;12.67;7.93;;;;;;;;;;5012600;28;20206;-83
2022/10/07 12:18:03;;;;;;;12.60;7.57;;;;;;;;;;5012900;28;20181;-83
2022/10/07 12:21:08;;;;;;;10.27;6.27;;;;;;;;;;5024371;28;20179;-83
2022/10/07 12:24:14;;;;;;;11.57;6.27;;;;;;;;;;5023410;28;20218;-83
2022/10/07 12:27:23;;;;;;;9.73;5.17;;;;;;;;;;5024203;28;20181;-83
2022/10/07 12:30:47;;;;;;;5.60;4.10;;;;;;;;;;5024249;28;20185;-83
2022/10/07 12:33:54;;;;;;;9.23;3.77;;;;;;;;;;5023421;28;20217;-83
2022/10/07 12:37:36;;;;;;;5.17;3.70;;;;;;;;;;5023919;28;20563;-83
2022/10/07 12:40:46;;;;;;;6.90;2.77;;;;;;;;;;5025080;28;20201;-83
2022/10/07 12:44:12;;;;;;;12.53;3.37;;;;;;;;;;5030529;28;20704;-83
2022/10/07 12:47:28;;;;;;;9.80;4.23;;;;;;;;;;5028555;28;20204;-82
2022/10/07 12:50:33;;;;;;;6.97;3.60;;;;;;;;;;5034149;28;20202;-83
2022/10/07 12:53:40;;;;;;;14.20;3.17;;;;;;;;;;5045269;28;20219;-83
2022/10/07 12:56:45;;;;;;;8.73;3.10;;;;;;;;;;5021669;28;20178;-83
2022/10/07 13:00:11;;;;;;;10.73;4.83;;;;;;;;;;5034312;28;20179;-83
2022/10/07 13:03:46;;;;;;;7.03;4.07;;;;;;;;;;5022243;28;20225;-83
2022/10/07 13:07:02;;;;;;;7.13;4.27;;;;;;;;;;5012194;28;20185;-83
2022/10/07 13:10:22;;;;;;;8.80;5.60;;;;;;;;;;5022679;28;20179;-83
2022/10/07 13:13:32;;;;;;;13.87;4.87;;;;;;;;;;5033684;28;20218;-83
2022/10/07 13:17:18;;;;;;;13.03;6.13;;;;;;;;;;5046012;28;20198;-83
2022/10/07 13:20:43;;;;;;;11.70;6.07;;;;;;;;;;5014710;28;20202;-83
2022/10/07 13:23:50;;;;;;;38.73;6.37;;;;;;;;;;5032174;28;20227;-83
2022/10/07 13:26:55;;;;;;;11.97;5.83;;;;;;;;;;5022091;28;20184;-83
2022/10/07 13:30:04;;;;;;;19.23;6.83;;;;;;;;;;5040920;28;20202;-83
2022/10/07 13:33:27;;;;;;;8.17;5.37;;;;;;;;;;5026987;28;20222;-84
2022/10/07 13:36:44;;;;;;;11.30;5.70;;;;;;;;;;5041625;28;20545;-83
2022/10/07 13:39:49;;;;;;;14.83;6.90;;;;;;;;;;5036904;28;20209;-84
2022/10/07 13:42:55;;;;;;;15.67;7.03;;;;;;;;;;5010092;28;20226;-83
2022/10/07 13:46:00;;;;;;;12.43;6.97;;;;;;;;;;5021568;28;20183;-84
2022/10/07 13:49:05;;;;;;;10.93;6.87;;;;;;;;;;5028973;28;20209;-84
2022/10/07 13:52:27;;;;;;;13.20;7.20;;;;;;;;;;5041761;28;20180;-83
2022/10/07 13:55:34;;;;;;;10.00;7.57;;;;;;;;;;5041483;28;20181;-83
2022/10/07 13:58:38;;;;;;;12.17;8.13;;;;;;;;;;5041719;28;20177;-83
2022/10/07 14:01:44;;;;;;;13.03;7.87;;;;;;;;;;5045333;28;20172;-83
2022/10/07 14:04:58;;;;;;;11.37;7.10;;;;;;;;;;5045052;28;20215;-83
2022/10/07 14:08:16;;;;;;;12.27;7.70;;;;;;;;;;5034172;28;20182;-83
2022/10/07 14:11:21;;;;;;;16.43;7.77;;;;;;;;;;5055812;28;20528;-83
2022/10/07 14:14:32;;;;;;;14.43;7.77;;;;;;;;;;5035931;28;20229;-83
2022/10/07 14:17:43;;;;;;;11.23;7.20;;;;;;;;;;5025650;28;20520;-83
2022/10/07 14:21:05;;;;;;;8.97;6.90;;;;;;;;;;5013297;28;20177;-83
2022/10/07 14:24:10;;;;;;;8.63;7.03;;;;;;;;;;5025097;28;20234;-83
2022/10/07 14:27:38;;;;;;;17.27;8.00;;;;;;;;;;5013405;28;20202;-83
2022/10/07 14:37:49;;;;;;;12.67;8.60;;;;;;;;;;5036420;28;20186;-83
2022/10/07 14:40:53;;;;;;;15.70;8.27;;;;;;;;;;5013500;28;20189;-83
2022/10/07 14:43:58;;;;;;;11.47;9.30;;;;;;;;;;5024626;28;20224;-83
2022/10/07 14:47:11;;;;;;;12.57;7.80;;;;;;;;;;5013208;28;20196;-84
2022/10/07 14:50:18;;;;;;;15.73;8.73;;;;;;;;;;5035289;28;20181;-83
2022/10/07 14:53:22;;;;;;;15.07;9.23;;;;;;;;;;5023974;28;20213;-83
2022/10/07 14:56:30;;;;;;;12.13;8.50;;;;;;;;;;5013889;28;20176;-83
2022/10/07 14:59:34;;;;;;;10.57;8.23;;;;;;;;;;5013311;28;20509;-83
2022/10/07 15:02:39;;;;;;;15.10;9.00;;;;;;;;;;5024738;28;20220;-83
2022/10/07 15:05:43;;;;;;;11.60;9.13;;;;;;;;;;5013287;28;20177;-83
2022/10/07 15:08:48;;;;;;;16.63;9.90;;;;;;;;;;5025004;28;20185;-83
2022/10/07 15:11:52;;;;;;;16.80;9.13;;;;;;;;;;5022748;28;20185;-83
2022/10/07 15:14:56;;;;;;;12.90;9.50;;;;;;;;;;5048040;28;20188;-82
2022/10/07 15:18:00;;;;;;;13.07;9.10;;;;;;;;;;5023421;28;20176;-83
2022/10/07 15:21:04;;;;;;;13.43;9.00;;;;;;;;;;5034726;28;20177;-82
2022/10/07 15:24:09;;;;;;;13.83;8.50;;;;;;;;;;5012232;28;20224;-83
2022/10/07 15:27:16;;;;;;;14.27;8.07;;;;;;;;;;5023870;28;20177;-83
2022/10/07 15:30:20;;;;;;;11.17;7.37;;;;;;;;;;5023636;28;20201;-83
2022/10/07 15:33:26;;;;;;;14.27;8.00;;;;;;;;;;5012425;28;20209;-83
2022/10/07 15:36:32;;;;;;;12.60;7.43;;;;;;;;;;5012802;28;20180;-83
2022/10/07 15:39:36;;;;;;;16.27;7.53;;;;;;;;;;5023130;28;20517;-83
2022/10/07 15:42:43;;;;;;;11.80;7.20;;;;;;;;;;5022824;28;20216;-83
2022/10/07 15:45:47;;;;;;;10.40;7.40;;;;;;;;;;5012556;28;20174;-83
2022/10/07 15:48:55;;;;;;;7.60;6.50;;;;;;;;;;5023416;28;20620;-83
2022/10/07 15:52:00;;;;;;;8.67;6.87;;;;;;;;;;5023650;28;20181;-83
2022/10/07 15:55:04;;;;;;;12.63;7.50;;;;;;;;;;5022542;28;20197;-83
2022/10/07 15:58:09;;;;;;;7.97;6.73;;;;;;;;;;5011971;28;20197;-82
2022/10/07 16:01:14;;;;;;;8.27;6.17;;;;;;;;;;5022662;28;20201;-83
2022/10/07 16:04:19;;;;;;;8.33;6.37;;;;;;;;;;5022943;28;20225;-82
2022/10/07 16:07:23;;;;;;;9.23;6.17;;;;;;;;;;5023342;28;20181;-83
2022/10/07 16:10:27;;;;;;;10.77;7.17;;;;;;;;;;5011436;28;20180;-83
2022/10/07 16:13:42;;;;;;;15.13;6.93;;;;;;;;;;5022242;28;20216;-83
2022/10/07 16:16:46;;;;;;;12.27;7.90;;;;;;;;;;5022957;28;20181;-83
2022/10/07 16:19:50;;;;;;;12.00;6.83;;;;;;;;;;5011432;28;20188;-83
2022/10/07 16:22:55;;;;;;;9.93;7.63;;;;;;;;;;5012010;28;20209;-83
2022/10/07 16:26:04;;;;;;;11.57;7.90;;;;;;;;;;5022845;28;20177;-83
2022/10/07 16:32:37;;;;;;;14.80;7.60;;;;;;;;;;5022129;28;20224;-83
2022/10/07 16:35:41;;;;;;;12.43;7.53;;;;;;;;;;5022299;28;20176;-83
2022/10/07 16:38:46;;;;;;;10.83;7.30;;;;;;;;;;5022408;28;20197;-83
2022/10/07 16:41:51;;;;;;;10.93;7.20;;;;;;;;;;5022086;28;20658;-83
2022/10/07 16:44:55;;;;;;;10.37;7.50;;;;;;;;;;5022175;28;20205;-83
2022/10/07 16:48:00;;;;;;;16.73;8.53;;;;;;;;;;5011367;28;20185;-83
2022/10/07 16:51:16;;;;;;;11.80;8.40;;;;;;;;;;5010638;28;20537;-83
2022/10/07 16:54:20;;;;;;;13.30;8.47;;;;;;;;;;5033792;28;20208;-83
2022/10/07 16:57:25;;;;;;;18.07;9.33;;;;;;;;;;5011123;28;20184;-82
2022/10/07 17:00:30;;;;;;;13.67;8.93;;;;;;;;;;5022544;28;20517;-83
2022/10/07 17:03:36;;;;;;;15.83;9.50;;;;;;;;;;5023453;28;20216;-82
2022/10/07 17:06:42;;;;;;;11.77;8.23;;;;;;;;;;5011651;28;20315;-83
2022/10/07 17:09:47;;;;;;;15.90;9.30;;;;;;;;;;5022414;28;20180;-83
2022/10/07 17:12:51;;;;;;;15.73;9.40;;;;;;;;;;5010370;28;20718;-83
2022/10/07 17:15:56;;;;;;;14.63;9.47;;;;;;;;;;5011421;28;20205;-83
2022/10/07 17:19:00;;;;;;;17.90;11.80;;;;;;;;;;5021962;28;20636;-83
2022/10/07 17:22:05;;;;;;;17.37;10.73;;;;;;;;;;5010141;28;20187;-83
2022/10/07 17:25:09;;;;;;;18.23;10.67;;;;;;;;;;5033188;28;20211;-83
2022/10/07 17:28:14;;;;;;;19.53;11.63;;;;;;;;;;5021425;28;20187;-83
2022/10/07 17:31:18;;;;;;;19.73;12.43;;;;;;;;;;5044466;28;20187;-83
2022/10/07 17:34:22;;;;;;;18.97;14.00;;;;;;;;;;5032008;28;20214;-83
2022/10/07 17:37:26;;;;;;;19.27;13.37;;;;;;;;;;5032488;28;20191;-83
2022/10/07 17:40:33;;;;;;;22.73;13.53;;;;;;;;;;5033061;28;20183;-83
2022/10/07 17:43:37;;;;;;;18.83;12.73;;;;;;;;;;5010327;28;20219;-83
2022/10/07 17:46:42;;;;;;;21.37;13.00;;;;;;;;;;5021504;28;20188;-83
2022/10/07 17:49:46;;;;;;;16.97;12.17;;;;;;;;;;5021191;28;20689;-83
2022/10/07 17:52:51;;;;;;;21.03;13.10;;;;;;;;;;5020902;28;20223;-83
2022/10/07 17:55:55;;;;;;;19.90;13.77;;;;;;;;;;5009403;28;20199;-83
2022/10/07 17:58:59;;;;;;;20.77;13.43;;;;;;;;;;5014993;28;20271;-83
2022/10/07 18:02:04;;;;;;;23.80;13.27;;;;;;;;;;5039654;28;20206;-82
2022/10/07 18:05:09;;;;;;;23.87;12.43;;;;;;;;;;5052337;28;20686;-83
2022/10/07 18:08:13;;;;;;;24.73;13.40;;;;;;;;;;5029150;28;20677;-82
2022/10/07 18:11:17;;;;;;;20.10;12.63;;;;;;;;;;5025500;28;20206;-83
2022/10/07 18:17:50;;;;;;;23.50;14.27;;;;;;;;;;5051305;28;20187;-83
2022/10/07 18:20:56;;;;;;;25.37;15.17;;;;;;;;;;5029098;28;20642;-83
2022/10/07 18:24:00;;;;;;;30.87;15.33;;;;;;;;;;5039618;28;20214;-83
2022/10/07 18:27:04;;;;;;;24.60;14.03;;;;;;;;;;5039447;28;20238;-83
2022/10/07 18:30:09;;;;;;;21.47;15.37;;;;;;;;;;5028930;28;20184;-84
2022/10/07 18:33:13;;;;;;;28.10;15.60;;;;;;;;;;5051199;28;20708;-83
2022/10/07 18:36:18;;;;;;;22.43;14.87;;;;;;;;;;5038550;28;20186;-84
2022/10/07 18:39:23;;;;;;;22.10;15.93;;;;;;;;;;5019510;28;20199;-84
2022/10/07 18:42:28;;;;;;;23.33;16.80;;;;;;;;;;5033581;28;20539;-84
2022/10/07 18:45:32;;;;;;;24.20;15.07;;;;;;;;;;5025167;28;20219;-83
2022/10/07 18:48:38;;;;;;;26.90;17.13;;;;;;;;;;5017158;28;20184;-84
2022/10/07 18:51:44;;;;;;;24.97;15.93;;;;;;;;;;5017491;28;20188;-83
2022/10/07 18:54:48;;;;;;;25.47;17.33;;;;;;;;;;5016998;28;20184;-85
2022/10/07 18:57:53;;;;;;;23.80;16.40;;;;;;;;;;5029005;28;20195;-84
2022/10/07 19:00:57;;;;;;;26.20;17.80;;;;;;;;;;5006140;28;20196;-84
2022/10/07 19:04:02;;;;;;;22.67;16.60;;;;;;;;;;5017097;28;20231;-84
2022/10/07 19:07:06;;;;;;;23.43;16.83;;;;;;;;;;5017039;28;20212;-84